sensor_id;sensor_type;location;lat;lon;timestamp;P1;durP1;ratioP1;P2;durP2;ratioP2
16310;SDS011;8264;48.510;8.872;2022-12-07T00:00:43;7.23;;;5.70;;
16310;SDS011;8264;48.510;8.872;2022-12-07T00:03:11;7.57;;;5.80;;
16310;SDS011;8264;48.510;8.872;2022-12-07T00:05:38;6.33;;;5.27;;
16310;SDS011;8264;48.510;8.872;2022-12-07T00:08:04;6.80;;;5.63;;
16310;SDS011;8264;48.510;8.872;2022-12-07T00:10:32;6.77;;;5.07;;
16310;SDS011;8264;48.510;8.872;2022-12-07T00:12:59;6.97;;;5.10;;
16310;SDS011;8264;48.510;8.872;2022-12-07T00:15:25;7.17;;;5.67;;
16310;SDS011;8264;48.510;8.872;2022-12-07T00:17:52;9.07;;;6.60;;
16310;SDS011;8264;48.510;8.872;2022-12-07T00:20:20;6.03;;;5.00;;
16310;SDS011;8264;48.510;8.872;2022-12-07T00:22:46;6.53;;;5.00;;
16310;SDS011;8264;48.510;8.872;2022-12-07T00:25:13;6.97;;;5.40;;
16310;SDS011;8264;48.510;8.872;2022-12-07T00:27:39;6.97;;;5.10;;
16310;SDS011;8264;48.510;8.872;2022-12-07T00:30:06;5.97;;;5.17;;
16310;SDS011;8264;48.510;8.872;2022-12-07T00:32:33;5.97;;;5.30;;
16310;SDS011;8264;48.510;8.872;2022-12-07T00:35:00;7.07;;;5.17;;
16310;SDS011;8264;48.510;8.872;2022-12-07T00:37:28;7.90;;;5.97;;
16310;SDS011;8264;48.510;8.872;2022-12-07T00:39:54;6.87;;;5.07;;
16310;SDS011;8264;48.510;8.872;2022-12-07T00:42:21;7.20;;;5.37;;
16310;SDS011;8264;48.510;8.872;2022-12-07T00:44:47;6.67;;;5.40;;
16310;SDS011;8264;48.510;8.872;2022-12-07T00:47:14;6.97;;;5.57;;
16310;SDS011;8264;48.510;8.872;2022-12-07T00:49:40;8.27;;;5.93;;
16310;SDS011;8264;48.510;8.872;2022-12-07T00:52:07;7.70;;;5.63;;
16310;SDS011;8264;48.510;8.872;2022-12-07T00:54:35;7.07;;;5.60;;
16310;SDS011;8264;48.510;8.872;2022-12-07T00:57:02;6.53;;;5.60;;
16310;SDS011;8264;48.510;8.872;2022-12-07T00:59:28;7.90;;;5.33;;
16310;SDS011;8264;48.510;8.872;2022-12-07T01:01:55;6.37;;;5.17;;
16310;SDS011;8264;48.510;8.872;2022-12-07T01:04:21;6.40;;;5.23;;
16310;SDS011;8264;48.510;8.872;2022-12-07T01:06:48;6.83;;;5.70;;
16310;SDS011;8264;48.510;8.872;2022-12-07T01:09:14;7.90;;;5.87;;
16310;SDS011;8264;48.510;8.872;2022-12-07T01:11:42;7.33;;;5.80;;
16310;SDS011;8264;48.510;8.872;2022-12-07T01:14:09;6.47;;;5.60;;
16310;SDS011;8264;48.510;8.872;2022-12-07T01:16:35;8.83;;;5.40;;
16310;SDS011;8264;48.510;8.872;2022-12-07T01:19:02;7.20;;;5.47;;
16310;SDS011;8264;48.510;8.872;2022-12-07T01:21:30;5.43;;;4.73;;
16310;SDS011;8264;48.510;8.872;2022-12-07T01:23:59;7.43;;;5.77;;
16310;SDS011;8264;48.510;8.872;2022-12-07T01:26:26;8.33;;;6.07;;
16310;SDS011;8264;48.510;8.872;2022-12-07T01:28:54;8.00;;;5.63;;
16310;SDS011;8264;48.510;8.872;2022-12-07T01:31:22;9.00;;;5.70;;
16310;SDS011;8264;48.510;8.872;2022-12-07T01:33:51;12.83;;;5.90;;
16310;SDS011;8264;48.510;8.872;2022-12-07T01:36:19;7.73;;;5.67;;
16310;SDS011;8264;48.510;8.872;2022-12-07T01:38:47;6.80;;;5.90;;
16310;SDS011;8264;48.510;8.872;2022-12-07T01:41:16;8.20;;;5.73;;
16310;SDS011;8264;48.510;8.872;2022-12-07T01:46:35;6.93;;;5.77;;
16310;SDS011;8264;48.510;8.872;2022-12-07T01:49:02;8.47;;;5.83;;
16310;SDS011;8264;48.510;8.872;2022-12-07T01:51:30;6.37;;;5.17;;
16310;SDS011;8264;48.510;8.872;2022-12-07T01:53:56;8.70;;;6.13;;
16310;SDS011;8264;48.510;8.872;2022-12-07T01:56:24;7.67;;;5.83;;
16310;SDS011;8264;48.510;8.872;2022-12-07T01:58:51;8.23;;;5.53;;
16310;SDS011;8264;48.510;8.872;2022-12-07T02:01:19;8.67;;;5.90;;
16310;SDS011;8264;48.510;8.872;2022-12-07T02:03:46;7.50;;;5.17;;
16310;SDS011;8264;48.510;8.872;2022-12-07T02:06:14;7.67;;;5.43;;
16310;SDS011;8264;48.510;8.872;2022-12-07T02:08:43;6.73;;;5.30;;
16310;SDS011;8264;48.510;8.872;2022-12-07T02:11:10;6.57;;;5.10;;
16310;SDS011;8264;48.510;8.872;2022-12-07T02:13:38;6.33;;;5.20;;
16310;SDS011;8264;48.510;8.872;2022-12-07T02:16:09;7.57;;;5.33;;
16310;SDS011;8264;48.510;8.872;2022-12-07T02:18:48;9.00;;;5.83;;
16310;SDS011;8264;48.510;8.872;2022-12-07T02:21:24;8.30;;;6.00;;
16310;SDS011;8264;48.510;8.872;2022-12-07T02:24:03;8.63;;;6.07;;
16310;SDS011;8264;48.510;8.872;2022-12-07T02:26:44;7.47;;;5.67;;
16310;SDS011;8264;48.510;8.872;2022-12-07T02:29:31;6.67;;;5.50;;
16310;SDS011;8264;48.510;8.872;2022-12-07T02:32:02;10.23;;;6.07;;
16310;SDS011;8264;48.510;8.872;2022-12-07T02:34:36;8.23;;;6.30;;
16310;SDS011;8264;48.510;8.872;2022-12-07T02:37:09;9.00;;;6.00;;
16310;SDS011;8264;48.510;8.872;2022-12-07T02:39:43;8.40;;;6.47;;
16310;SDS011;8264;48.510;8.872;2022-12-07T02:42:14;8.43;;;5.87;;
16310;SDS011;8264;48.510;8.872;2022-12-07T02:44:46;10.30;;;6.00;;
16310;SDS011;8264;48.510;8.872;2022-12-07T02:47:14;7.13;;;4.97;;
16310;SDS011;8264;48.510;8.872;2022-12-07T02:49:43;5.30;;;4.57;;
16310;SDS011;8264;48.510;8.872;2022-12-07T02:52:11;5.23;;;4.23;;
16310;SDS011;8264;48.510;8.872;2022-12-07T02:54:38;5.80;;;4.83;;
16310;SDS011;8264;48.510;8.872;2022-12-07T02:57:14;6.00;;;4.73;;
16310;SDS011;8264;48.510;8.872;2022-12-07T02:59:50;6.37;;;4.47;;
16310;SDS011;8264;48.510;8.872;2022-12-07T03:02:28;7.33;;;5.60;;
16310;SDS011;8264;48.510;8.872;2022-12-07T03:05:05;5.70;;;4.43;;
16310;SDS011;8264;48.510;8.872;2022-12-07T03:07:48;7.13;;;5.07;;
16310;SDS011;8264;48.510;8.872;2022-12-07T03:10:19;7.67;;;4.90;;
16310;SDS011;8264;48.510;8.872;2022-12-07T03:12:54;7.20;;;5.37;;
16310;SDS011;8264;48.510;8.872;2022-12-07T03:15:29;8.37;;;5.20;;
16310;SDS011;8264;48.510;8.872;2022-12-07T03:17:58;7.23;;;5.57;;
16310;SDS011;8264;48.510;8.872;2022-12-07T03:20:26;8.13;;;5.90;;
16310;SDS011;8264;48.510;8.872;2022-12-07T03:22:57;8.20;;;6.03;;
16310;SDS011;8264;48.510;8.872;2022-12-07T03:25:24;8.03;;;5.83;;
16310;SDS011;8264;48.510;8.872;2022-12-07T03:27:53;8.70;;;6.30;;
16310;SDS011;8264;48.510;8.872;2022-12-07T03:30:23;7.67;;;5.80;;
16310;SDS011;8264;48.510;8.872;2022-12-07T03:32:54;9.20;;;6.23;;
16310;SDS011;8264;48.510;8.872;2022-12-07T03:35:25;8.80;;;6.20;;
16310;SDS011;8264;48.510;8.872;2022-12-07T03:37:54;9.43;;;6.50;;
16310;SDS011;8264;48.510;8.872;2022-12-07T03:40:25;7.73;;;6.37;;
16310;SDS011;8264;48.510;8.872;2022-12-07T03:42:54;10.07;;;7.37;;
16310;SDS011;8264;48.510;8.872;2022-12-07T03:45:25;8.67;;;6.77;;
16310;SDS011;8264;48.510;8.872;2022-12-07T03:48:01;10.60;;;7.60;;
16310;SDS011;8264;48.510;8.872;2022-12-07T03:50:36;8.93;;;6.10;;
16310;SDS011;8264;48.510;8.872;2022-12-07T03:53:08;10.70;;;7.03;;
16310;SDS011;8264;48.510;8.872;2022-12-07T03:55:39;9.43;;;7.37;;
16310;SDS011;8264;48.510;8.872;2022-12-07T03:58:10;10.93;;;6.70;;
16310;SDS011;8264;48.510;8.872;2022-12-07T04:00:39;10.23;;;7.43;;
16310;SDS011;8264;48.510;8.872;2022-12-07T04:03:08;8.87;;;6.53;;
16310;SDS011;8264;48.510;8.872;2022-12-07T04:05:35;8.70;;;6.90;;
16310;SDS011;8264;48.510;8.872;2022-12-07T04:08:03;9.40;;;6.93;;
16310;SDS011;8264;48.510;8.872;2022-12-07T04:10:30;10.07;;;6.87;;
16310;SDS011;8264;48.510;8.872;2022-12-07T04:12:57;9.87;;;7.40;;
16310;SDS011;8264;48.510;8.872;2022-12-07T04:15:24;11.53;;;8.77;;
16310;SDS011;8264;48.510;8.872;2022-12-07T04:17:52;11.50;;;8.20;;
16310;SDS011;8264;48.510;8.872;2022-12-07T04:20:21;10.20;;;7.20;;
16310;SDS011;8264;48.510;8.872;2022-12-07T04:22:48;10.00;;;7.30;;
16310;SDS011;8264;48.510;8.872;2022-12-07T04:25:15;11.37;;;6.87;;
16310;SDS011;8264;48.510;8.872;2022-12-07T04:27:42;11.33;;;7.43;;
16310;SDS011;8264;48.510;8.872;2022-12-07T04:30:10;13.67;;;9.60;;
16310;SDS011;8264;48.510;8.872;2022-12-07T04:32:37;14.77;;;9.23;;
16310;SDS011;8264;48.510;8.872;2022-12-07T04:35:05;17.87;;;9.77;;
16310;SDS011;8264;48.510;8.872;2022-12-07T04:37:34;15.77;;;9.63;;
16310;SDS011;8264;48.510;8.872;2022-12-07T04:40:04;14.83;;;9.53;;
16310;SDS011;8264;48.510;8.872;2022-12-07T04:42:32;12.10;;;9.07;;
16310;SDS011;8264;48.510;8.872;2022-12-07T04:44:59;14.23;;;10.30;;
16310;SDS011;8264;48.510;8.872;2022-12-07T04:47:26;13.83;;;10.33;;
16310;SDS011;8264;48.510;8.872;2022-12-07T04:49:54;14.70;;;9.97;;
16310;SDS011;8264;48.510;8.872;2022-12-07T04:52:21;14.03;;;10.07;;
16310;SDS011;8264;48.510;8.872;2022-12-07T04:54:49;11.77;;;8.00;;
16310;SDS011;8264;48.510;8.872;2022-12-07T04:57:16;13.83;;;8.70;;
16310;SDS011;8264;48.510;8.872;2022-12-07T04:59:43;11.13;;;7.93;;
16310;SDS011;8264;48.510;8.872;2022-12-07T05:02:10;12.30;;;8.77;;
16310;SDS011;8264;48.510;8.872;2022-12-07T05:04:37;13.47;;;9.60;;
16310;SDS011;8264;48.510;8.872;2022-12-07T05:07:05;16.60;;;10.80;;
16310;SDS011;8264;48.510;8.872;2022-12-07T05:09:32;15.13;;;9.83;;
16310;SDS011;8264;48.510;8.872;2022-12-07T05:12:02;16.33;;;8.10;;
16310;SDS011;8264;48.510;8.872;2022-12-07T05:14:29;12.93;;;8.63;;
16310;SDS011;8264;48.510;8.872;2022-12-07T05:16:56;11.57;;;7.43;;
16310;SDS011;8264;48.510;8.872;2022-12-07T05:19:23;12.60;;;8.23;;
16310;SDS011;8264;48.510;8.872;2022-12-07T05:21:51;10.77;;;7.87;;
16310;SDS011;8264;48.510;8.872;2022-12-07T05:24:18;13.13;;;8.50;;
16310;SDS011;8264;48.510;8.872;2022-12-07T05:26:45;10.90;;;8.23;;
16310;SDS011;8264;48.510;8.872;2022-12-07T05:29:14;9.47;;;7.13;;
16310;SDS011;8264;48.510;8.872;2022-12-07T05:31:43;11.47;;;8.10;;
16310;SDS011;8264;48.510;8.872;2022-12-07T05:34:10;11.23;;;8.10;;
16310;SDS011;8264;48.510;8.872;2022-12-07T05:36:37;12.03;;;8.30;;
16310;SDS011;8264;48.510;8.872;2022-12-07T05:39:05;11.97;;;7.77;;
16310;SDS011;8264;48.510;8.872;2022-12-07T05:41:33;12.53;;;8.97;;
16310;SDS011;8264;48.510;8.872;2022-12-07T05:44:19;16.40;;;10.10;;
16310;SDS011;8264;48.510;8.872;2022-12-07T05:46:46;12.10;;;8.90;;
16310;SDS011;8264;48.510;8.872;2022-12-07T05:49:13;16.13;;;8.47;;
16310;SDS011;8264;48.510;8.872;2022-12-07T05:51:41;65.17;;;40.37;;
16310;SDS011;8264;48.510;8.872;2022-12-07T05:54:08;18.10;;;11.67;;
16310;SDS011;8264;48.510;8.872;2022-12-07T05:56:35;16.17;;;9.97;;
16310;SDS011;8264;48.510;8.872;2022-12-07T05:59:02;13.87;;;9.23;;
16310;SDS011;8264;48.510;8.872;2022-12-07T06:01:48;21.80;;;15.93;;
16310;SDS011;8264;48.510;8.872;2022-12-07T06:04:15;59.97;;;35.67;;
16310;SDS011;8264;48.510;8.872;2022-12-07T06:06:42;16.23;;;11.00;;
16310;SDS011;8264;48.510;8.872;2022-12-07T06:09:09;11.30;;;8.73;;
16310;SDS011;8264;48.510;8.872;2022-12-07T06:11:39;11.70;;;8.73;;
16310;SDS011;8264;48.510;8.872;2022-12-07T06:14:23;11.17;;;7.50;;
16310;SDS011;8264;48.510;8.872;2022-12-07T06:16:52;11.23;;;8.43;;
16310;SDS011;8264;48.510;8.872;2022-12-07T06:19:19;9.73;;;7.83;;
16310;SDS011;8264;48.510;8.872;2022-12-07T06:21:46;13.70;;;9.43;;
16310;SDS011;8264;48.510;8.872;2022-12-07T06:24:13;11.70;;;8.63;;
16310;SDS011;8264;48.510;8.872;2022-12-07T06:26:40;10.60;;;7.93;;
16310;SDS011;8264;48.510;8.872;2022-12-07T06:29:07;11.27;;;7.73;;
16310;SDS011;8264;48.510;8.872;2022-12-07T06:31:34;19.20;;;13.03;;
16310;SDS011;8264;48.510;8.872;2022-12-07T06:34:03;18.43;;;11.87;;
16310;SDS011;8264;48.510;8.872;2022-12-07T06:36:31;33.10;;;19.50;;
16310;SDS011;8264;48.510;8.872;2022-12-07T06:38:58;12.80;;;9.53;;
16310;SDS011;8264;48.510;8.872;2022-12-07T06:41:24;14.43;;;9.33;;
16310;SDS011;8264;48.510;8.872;2022-12-07T06:43:51;13.93;;;9.50;;
16310;SDS011;8264;48.510;8.872;2022-12-07T06:46:17;15.53;;;10.13;;
16310;SDS011;8264;48.510;8.872;2022-12-07T06:48:44;14.43;;;8.90;;
16310;SDS011;8264;48.510;8.872;2022-12-07T06:51:12;9.77;;;7.40;;
16310;SDS011;8264;48.510;8.872;2022-12-07T06:53:39;10.10;;;7.07;;
16310;SDS011;8264;48.510;8.872;2022-12-07T06:56:06;12.07;;;8.63;;
16310;SDS011;8264;48.510;8.872;2022-12-07T06:58:33;10.33;;;7.90;;
16310;SDS011;8264;48.510;8.872;2022-12-07T07:01:01;15.30;;;9.17;;
16310;SDS011;8264;48.510;8.872;2022-12-07T07:03:28;15.43;;;9.03;;
16310;SDS011;8264;48.510;8.872;2022-12-07T07:05:55;9.27;;;6.90;;
16310;SDS011;8264;48.510;8.872;2022-12-07T07:08:24;7.53;;;6.00;;
16310;SDS011;8264;48.510;8.872;2022-12-07T07:10:51;7.77;;;5.57;;
16310;SDS011;8264;48.510;8.872;2022-12-07T07:13:18;7.97;;;6.33;;
16310;SDS011;8264;48.510;8.872;2022-12-07T07:15:45;10.03;;;6.90;;
16310;SDS011;8264;48.510;8.872;2022-12-07T07:18:13;14.83;;;8.87;;
16310;SDS011;8264;48.510;8.872;2022-12-07T07:20:40;14.10;;;9.20;;
16310;SDS011;8264;48.510;8.872;2022-12-07T07:23:10;32.53;;;18.57;;
16310;SDS011;8264;48.510;8.872;2022-12-07T07:25:38;37.23;;;20.47;;
16310;SDS011;8264;48.510;8.872;2022-12-07T07:28:04;39.20;;;16.90;;
16310;SDS011;8264;48.510;8.872;2022-12-07T07:30:31;15.83;;;9.20;;
16310;SDS011;8264;48.510;8.872;2022-12-07T07:32:58;25.83;;;11.77;;
16310;SDS011;8264;48.510;8.872;2022-12-07T07:35:25;13.87;;;10.00;;
16310;SDS011;8264;48.510;8.872;2022-12-07T07:37:53;13.43;;;9.03;;
16310;SDS011;8264;48.510;8.872;2022-12-07T07:40:20;16.53;;;10.40;;
16310;SDS011;8264;48.510;8.872;2022-12-07T07:42:49;12.43;;;8.30;;
16310;SDS011;8264;48.510;8.872;2022-12-07T07:45:17;13.83;;;8.37;;
16310;SDS011;8264;48.510;8.872;2022-12-07T07:47:44;11.77;;;7.57;;
16310;SDS011;8264;48.510;8.872;2022-12-07T07:50:11;10.70;;;7.20;;
16310;SDS011;8264;48.510;8.872;2022-12-07T07:52:39;17.43;;;10.87;;
16310;SDS011;8264;48.510;8.872;2022-12-07T07:55:07;12.97;;;7.93;;
16310;SDS011;8264;48.510;8.872;2022-12-07T07:57:35;12.30;;;7.77;;
16310;SDS011;8264;48.510;8.872;2022-12-07T08:00:04;9.63;;;6.83;;
16310;SDS011;8264;48.510;8.872;2022-12-07T08:02:33;9.20;;;6.97;;
16310;SDS011;8264;48.510;8.872;2022-12-07T08:05:01;8.73;;;6.17;;
16310;SDS011;8264;48.510;8.872;2022-12-07T08:07:31;7.40;;;5.90;;
16310;SDS011;8264;48.510;8.872;2022-12-07T08:09:58;8.73;;;6.80;;
16310;SDS011;8264;48.510;8.872;2022-12-07T08:12:26;7.37;;;5.67;;
16310;SDS011;8264;48.510;8.872;2022-12-07T08:14:54;7.80;;;5.87;;
16310;SDS011;8264;48.510;8.872;2022-12-07T08:17:23;8.50;;;5.80;;
16310;SDS011;8264;48.510;8.872;2022-12-07T08:19:51;7.77;;;5.80;;
16310;SDS011;8264;48.510;8.872;2022-12-07T08:22:18;8.23;;;6.37;;
16310;SDS011;8264;48.510;8.872;2022-12-07T08:24:48;7.40;;;5.93;;
16310;SDS011;8264;48.510;8.872;2022-12-07T08:27:16;9.53;;;6.73;;
16310;SDS011;8264;48.510;8.872;2022-12-07T08:29:51;8.20;;;6.60;;
16310;SDS011;8264;48.510;8.872;2022-12-07T08:32:20;7.97;;;6.13;;
16310;SDS011;8264;48.510;8.872;2022-12-07T08:34:51;8.30;;;6.20;;
16310;SDS011;8264;48.510;8.872;2022-12-07T08:37:21;8.47;;;5.87;;
16310;SDS011;8264;48.510;8.872;2022-12-07T08:39:49;8.73;;;6.70;;
16310;SDS011;8264;48.510;8.872;2022-12-07T08:42:16;10.53;;;7.57;;
16310;SDS011;8264;48.510;8.872;2022-12-07T08:44:43;19.03;;;12.80;;
16310;SDS011;8264;48.510;8.872;2022-12-07T08:47:11;30.70;;;15.73;;
16310;SDS011;8264;48.510;8.872;2022-12-07T08:49:41;14.40;;;10.07;;
16310;SDS011;8264;48.510;8.872;2022-12-07T08:52:13;21.10;;;9.37;;
16310;SDS011;8264;48.510;8.872;2022-12-07T08:54:43;19.07;;;8.10;;
16310;SDS011;8264;48.510;8.872;2022-12-07T08:57:14;13.20;;;6.53;;
16310;SDS011;8264;48.510;8.872;2022-12-07T08:59:41;12.77;;;6.83;;
16310;SDS011;8264;48.510;8.872;2022-12-07T09:02:09;7.13;;;5.77;;
16310;SDS011;8264;48.510;8.872;2022-12-07T09:04:36;6.20;;;5.60;;
16310;SDS011;8264;48.510;8.872;2022-12-07T09:07:05;8.40;;;6.13;;
16310;SDS011;8264;48.510;8.872;2022-12-07T09:09:32;7.57;;;5.70;;
16310;SDS011;8264;48.510;8.872;2022-12-07T09:11:59;9.60;;;6.77;;
16310;SDS011;8264;48.510;8.872;2022-12-07T09:14:26;8.47;;;5.57;;
16310;SDS011;8264;48.510;8.872;2022-12-07T09:16:53;7.67;;;5.83;;
16310;SDS011;8264;48.510;8.872;2022-12-07T09:19:20;8.17;;;6.30;;
16310;SDS011;8264;48.510;8.872;2022-12-07T09:21:47;7.27;;;5.77;;
16310;SDS011;8264;48.510;8.872;2022-12-07T09:24:15;7.90;;;5.80;;
16310;SDS011;8264;48.510;8.872;2022-12-07T09:26:42;7.77;;;6.23;;
16310;SDS011;8264;48.510;8.872;2022-12-07T09:29:10;7.27;;;6.30;;
16310;SDS011;8264;48.510;8.872;2022-12-07T09:31:37;6.83;;;5.77;;
16310;SDS011;8264;48.510;8.872;2022-12-07T09:34:04;8.47;;;6.20;;
16310;SDS011;8264;48.510;8.872;2022-12-07T09:36:32;7.03;;;5.77;;
16310;SDS011;8264;48.510;8.872;2022-12-07T09:38:59;6.57;;;5.87;;
16310;SDS011;8264;48.510;8.872;2022-12-07T09:41:27;7.23;;;6.03;;
16310;SDS011;8264;48.510;8.872;2022-12-07T09:43:58;7.53;;;6.47;;
16310;SDS011;8264;48.510;8.872;2022-12-07T09:46:29;7.77;;;5.67;;
16310;SDS011;8264;48.510;8.872;2022-12-07T09:48:59;9.57;;;6.90;;
16310;SDS011;8264;48.510;8.872;2022-12-07T09:51:26;13.10;;;10.07;;
16310;SDS011;8264;48.510;8.872;2022-12-07T09:53:53;7.97;;;6.37;;
16310;SDS011;8264;48.510;8.872;2022-12-07T09:56:21;8.03;;;6.27;;
16310;SDS011;8264;48.510;8.872;2022-12-07T09:58:49;9.27;;;7.27;;
16310;SDS011;8264;48.510;8.872;2022-12-07T10:01:18;8.93;;;7.17;;
16310;SDS011;8264;48.510;8.872;2022-12-07T10:03:48;9.80;;;7.30;;
16310;SDS011;8264;48.510;8.872;2022-12-07T10:06:16;10.00;;;7.33;;
16310;SDS011;8264;48.510;8.872;2022-12-07T10:08:43;11.20;;;7.80;;
16310;SDS011;8264;48.510;8.872;2022-12-07T10:11:10;10.03;;;7.83;;
16310;SDS011;8264;48.510;8.872;2022-12-07T10:13:37;11.03;;;6.90;;
16310;SDS011;8264;48.510;8.872;2022-12-07T10:16:08;10.23;;;7.30;;
16310;SDS011;8264;48.510;8.872;2022-12-07T10:18:58;10.13;;;6.83;;
16310;SDS011;8264;48.510;8.872;2022-12-07T10:21:46;9.23;;;7.30;;
16310;SDS011;8264;48.510;8.872;2022-12-07T10:24:26;9.00;;;6.87;;
16310;SDS011;8264;48.510;8.872;2022-12-07T10:26:53;9.27;;;7.13;;
16310;SDS011;8264;48.510;8.872;2022-12-07T10:29:22;9.27;;;7.27;;
16310;SDS011;8264;48.510;8.872;2022-12-07T10:31:52;9.10;;;7.00;;
16310;SDS011;8264;48.510;8.872;2022-12-07T10:34:23;9.80;;;7.10;;
16310;SDS011;8264;48.510;8.872;2022-12-07T10:36:54;8.10;;;6.77;;
16310;SDS011;8264;48.510;8.872;2022-12-07T10:39:40;8.57;;;6.63;;
16310;SDS011;8264;48.510;8.872;2022-12-07T10:42:15;9.10;;;7.30;;
16310;SDS011;8264;48.510;8.872;2022-12-07T10:44:43;9.73;;;7.07;;
16310;SDS011;8264;48.510;8.872;2022-12-07T10:47:31;10.70;;;7.10;;
16310;SDS011;8264;48.510;8.872;2022-12-07T10:50:14;9.20;;;6.97;;
16310;SDS011;8264;48.510;8.872;2022-12-07T10:52:53;8.43;;;6.90;;
16310;SDS011;8264;48.510;8.872;2022-12-07T10:55:46;8.67;;;5.87;;
16310;SDS011;8264;48.510;8.872;2022-12-07T10:58:26;9.43;;;6.17;;
16310;SDS011;8264;48.510;8.872;2022-12-07T11:00:58;11.23;;;6.60;;
16310;SDS011;8264;48.510;8.872;2022-12-07T11:06:33;7.77;;;6.03;;
16310;SDS011;8264;48.510;8.872;2022-12-07T11:09:21;8.77;;;6.77;;
16310;SDS011;8264;48.510;8.872;2022-12-07T11:11:59;7.30;;;5.90;;
16310;SDS011;8264;48.510;8.872;2022-12-07T11:14:35;8.97;;;6.43;;
16310;SDS011;8264;48.510;8.872;2022-12-07T11:17:10;8.17;;;6.77;;
16310;SDS011;8264;48.510;8.872;2022-12-07T11:19:49;7.37;;;6.27;;
16310;SDS011;8264;48.510;8.872;2022-12-07T11:22:26;7.47;;;6.47;;
16310;SDS011;8264;48.510;8.872;2022-12-07T11:24:58;9.07;;;6.03;;
16310;SDS011;8264;48.510;8.872;2022-12-07T11:27:33;8.40;;;6.93;;
16310;SDS011;8264;48.510;8.872;2022-12-07T11:30:12;6.57;;;5.77;;
16310;SDS011;8264;48.510;8.872;2022-12-07T11:32:47;6.77;;;5.70;;
16310;SDS011;8264;48.510;8.872;2022-12-07T11:35:34;6.03;;;5.30;;
16310;SDS011;8264;48.510;8.872;2022-12-07T11:38:10;6.13;;;5.27;;
16310;SDS011;8264;48.510;8.872;2022-12-07T11:40:39;16.23;;;8.97;;
16310;SDS011;8264;48.510;8.872;2022-12-07T11:43:11;9.23;;;6.20;;
16310;SDS011;8264;48.510;8.872;2022-12-07T11:45:43;10.53;;;6.60;;
16310;SDS011;8264;48.510;8.872;2022-12-07T11:48:14;9.23;;;6.47;;
16310;SDS011;8264;48.510;8.872;2022-12-07T11:50:45;8.23;;;6.00;;
16310;SDS011;8264;48.510;8.872;2022-12-07T11:53:17;8.27;;;5.20;;
16310;SDS011;8264;48.510;8.872;2022-12-07T11:55:47;4.20;;;3.80;;
16310;SDS011;8264;48.510;8.872;2022-12-07T11:58:20;4.10;;;3.43;;
16310;SDS011;8264;48.510;8.872;2022-12-07T12:01:01;4.00;;;3.47;;
16310;SDS011;8264;48.510;8.872;2022-12-07T12:03:36;4.53;;;3.33;;
16310;SDS011;8264;48.510;8.872;2022-12-07T12:06:05;3.37;;;2.93;;
16310;SDS011;8264;48.510;8.872;2022-12-07T12:08:36;4.67;;;3.83;;
16310;SDS011;8264;48.510;8.872;2022-12-07T12:11:08;5.13;;;3.43;;
16310;SDS011;8264;48.510;8.872;2022-12-07T12:13:48;3.00;;;2.60;;
16310;SDS011;8264;48.510;8.872;2022-12-07T12:19:25;2.83;;;2.63;;
16310;SDS011;8264;48.510;8.872;2022-12-07T12:21:57;3.00;;;2.57;;
16310;SDS011;8264;48.510;8.872;2022-12-07T12:24:31;3.40;;;2.77;;
16310;SDS011;8264;48.510;8.872;2022-12-07T12:27:02;3.43;;;2.57;;
16310;SDS011;8264;48.510;8.872;2022-12-07T12:29:32;3.23;;;2.67;;
16310;SDS011;8264;48.510;8.872;2022-12-07T12:32:04;4.43;;;3.20;;
16310;SDS011;8264;48.510;8.872;2022-12-07T12:34:38;6.13;;;3.20;;
16310;SDS011;8264;48.510;8.872;2022-12-07T12:49:33;4.27;;;3.30;;
16310;SDS011;8264;48.510;8.872;2022-12-07T12:52:45;2.60;;;2.40;;
16310;SDS011;8264;48.510;8.872;2022-12-07T12:55:19;3.03;;;2.70;;
16310;SDS011;8264;48.510;8.872;2022-12-07T12:58:32;2.70;;;2.10;;
16310;SDS011;8264;48.510;8.872;2022-12-07T13:04:39;5.97;;;3.57;;
16310;SDS011;8264;48.510;8.872;2022-12-07T13:10:24;2.03;;;1.60;;
16310;SDS011;8264;48.510;8.872;2022-12-07T13:13:04;1.93;;;1.73;;
16310;SDS011;8264;48.510;8.872;2022-12-07T13:15:55;6.80;;;2.23;;
16310;SDS011;8264;48.510;8.872;2022-12-07T13:25:11;2.00;;;1.80;;
16310;SDS011;8264;48.510;8.872;2022-12-07T13:27:45;2.03;;;1.70;;
16310;SDS011;8264;48.510;8.872;2022-12-07T13:30:16;3.40;;;2.00;;
16310;SDS011;8264;48.510;8.872;2022-12-07T13:32:51;2.30;;;2.10;;
16310;SDS011;8264;48.510;8.872;2022-12-07T13:35:33;2.60;;;2.40;;
16310;SDS011;8264;48.510;8.872;2022-12-07T13:38:05;4.13;;;2.60;;
16310;SDS011;8264;48.510;8.872;2022-12-07T13:40:59;1.80;;;1.70;;
16310;SDS011;8264;48.510;8.872;2022-12-07T13:43:27;1.77;;;1.60;;
16310;SDS011;8264;48.510;8.872;2022-12-07T13:45:56;1.80;;;1.70;;
16310;SDS011;8264;48.510;8.872;2022-12-07T13:48:28;1.60;;;1.40;;
16310;SDS011;8264;48.510;8.872;2022-12-07T13:51:01;2.07;;;1.87;;
16310;SDS011;8264;48.510;8.872;2022-12-07T13:53:29;1.83;;;1.70;;
16310;SDS011;8264;48.510;8.872;2022-12-07T13:55:57;1.70;;;1.60;;
16310;SDS011;8264;48.510;8.872;2022-12-07T13:58:24;1.20;;;1.10;;
16310;SDS011;8264;48.510;8.872;2022-12-07T14:00:51;1.87;;;1.50;;
16310;SDS011;8264;48.510;8.872;2022-12-07T14:03:31;2.20;;;1.80;;
16310;SDS011;8264;48.510;8.872;2022-12-07T14:08:50;4.17;;;2.97;;
16310;SDS011;8264;48.510;8.872;2022-12-07T14:11:17;9.83;;;4.37;;
16310;SDS011;8264;48.510;8.872;2022-12-07T14:13:55;5.83;;;4.40;;
16310;SDS011;8264;48.510;8.872;2022-12-07T14:16:24;7.17;;;3.80;;
16310;SDS011;8264;48.510;8.872;2022-12-07T14:18:54;3.67;;;3.30;;
16310;SDS011;8264;48.510;8.872;2022-12-07T14:21:23;3.03;;;2.60;;
16310;SDS011;8264;48.510;8.872;2022-12-07T14:24:11;3.47;;;2.50;;
16310;SDS011;8264;48.510;8.872;2022-12-07T14:26:42;3.10;;;2.57;;
16310;SDS011;8264;48.510;8.872;2022-12-07T14:29:22;3.60;;;2.60;;
16310;SDS011;8264;48.510;8.872;2022-12-07T14:31:56;3.07;;;2.60;;
16310;SDS011;8264;48.510;8.872;2022-12-07T14:34:23;4.10;;;3.13;;
16310;SDS011;8264;48.510;8.872;2022-12-07T14:36:52;3.90;;;2.90;;
16310;SDS011;8264;48.510;8.872;2022-12-07T14:39:19;3.87;;;3.10;;
16310;SDS011;8264;48.510;8.872;2022-12-07T14:41:46;4.93;;;2.83;;
16310;SDS011;8264;48.510;8.872;2022-12-07T14:44:19;3.13;;;2.80;;
16310;SDS011;8264;48.510;8.872;2022-12-07T14:46:47;3.70;;;2.87;;
16310;SDS011;8264;48.510;8.872;2022-12-07T14:49:14;3.07;;;2.77;;
16310;SDS011;8264;48.510;8.872;2022-12-07T14:51:41;5.40;;;3.30;;
16310;SDS011;8264;48.510;8.872;2022-12-07T14:54:12;3.93;;;2.60;;
16310;SDS011;8264;48.510;8.872;2022-12-07T14:56:41;3.73;;;3.30;;
16310;SDS011;8264;48.510;8.872;2022-12-07T14:59:09;3.47;;;3.10;;
16310;SDS011;8264;48.510;8.872;2022-12-07T15:01:36;4.47;;;4.07;;
16310;SDS011;8264;48.510;8.872;2022-12-07T15:04:03;6.40;;;3.77;;
16310;SDS011;8264;48.510;8.872;2022-12-07T15:06:30;4.53;;;3.37;;
16310;SDS011;8264;48.510;8.872;2022-12-07T15:08:57;5.10;;;4.27;;
16310;SDS011;8264;48.510;8.872;2022-12-07T15:11:25;4.37;;;3.53;;
16310;SDS011;8264;48.510;8.872;2022-12-07T15:13:52;6.43;;;3.87;;
16310;SDS011;8264;48.510;8.872;2022-12-07T15:16:35;5.07;;;3.57;;
16310;SDS011;8264;48.510;8.872;2022-12-07T15:19:02;4.20;;;3.80;;
16310;SDS011;8264;48.510;8.872;2022-12-07T15:21:29;5.20;;;3.67;;
16310;SDS011;8264;48.510;8.872;2022-12-07T15:23:55;5.57;;;4.57;;
16310;SDS011;8264;48.510;8.872;2022-12-07T15:26:22;4.70;;;3.83;;
16310;SDS011;8264;48.510;8.872;2022-12-07T15:28:52;4.57;;;3.80;;
16310;SDS011;8264;48.510;8.872;2022-12-07T15:31:19;4.57;;;3.63;;
16310;SDS011;8264;48.510;8.872;2022-12-07T15:33:46;6.37;;;3.90;;
16310;SDS011;8264;48.510;8.872;2022-12-07T15:36:17;4.40;;;3.80;;
16310;SDS011;8264;48.510;8.872;2022-12-07T15:38:46;7.17;;;3.57;;
16310;SDS011;8264;48.510;8.872;2022-12-07T15:41:13;4.17;;;3.73;;
16310;SDS011;8264;48.510;8.872;2022-12-07T15:43:39;4.97;;;3.77;;
16310;SDS011;8264;48.510;8.872;2022-12-07T15:46:28;6.73;;;4.10;;
16310;SDS011;8264;48.510;8.872;2022-12-07T15:48:55;9.70;;;6.57;;
16310;SDS011;8264;48.510;8.872;2022-12-07T15:51:26;5.33;;;4.50;;